sensor_id;sensor_type;location;lat;lon;timestamp;pressure;altitude;pressure_sealevel;temperature;humidity
23417;BME280;11881;42.432;25.632;2024-03-22T07:15:03;99622.22;;;8.79;86.93
23417;BME280;11881;42.432;25.632;2024-03-22T07:17:29;99621.75;;;9.19;86.40
23417;BME280;11881;42.432;25.632;2024-03-22T07:19:55;99625.84;;;9.35;85.42
23417;BME280;11881;42.432;25.632;2024-03-22T07:22:21;99618.34;;;9.40;83.56
23417;BME280;11881;42.432;25.632;2024-03-22T07:24:47;99625.69;;;9.58;84.32
23417;BME280;11881;42.432;25.632;2024-03-22T07:27:13;99615.00;;;9.81;82.07
23417;BME280;11881;42.432;25.632;2024-03-22T07:29:41;99620.03;;;9.84;77.67
23417;BME280;11881;42.432;25.632;2024-03-22T07:32:06;99614.59;;;9.85;79.08
23417;BME280;11881;42.432;25.632;2024-03-22T07:34:32;99615.59;;;10.37;78.13
23417;BME280;11881;42.432;25.632;2024-03-22T07:36:57;99615.53;;;10.49;74.93
23417;BME280;11881;42.432;25.632;2024-03-22T07:39:23;99623.16;;;10.32;73.03
23417;BME280;11881;42.432;25.632;2024-03-22T07:41:49;99607.81;;;10.66;73.19
23417;BME280;11881;42.432;25.632;2024-03-22T07:44:15;99612.06;;;10.27;70.46
23417;BME280;11881;42.432;25.632;2024-03-22T07:46:43;99616.75;;;10.56;71.53
23417;BME280;11881;42.432;25.632;2024-03-22T07:49:09;99615.44;;;10.50;73.40
23417;BME280;11881;42.432;25.632;2024-03-22T07:51:34;99609.09;;;10.72;72.94
23417;BME280;11881;42.432;25.632;2024-03-22T07:54:01;99618.66;;;10.54;71.77
23417;BME280;11881;42.432;25.632;2024-03-22T07:56:27;99611.75;;;10.93;72.32
23417;BME280;11881;42.432;25.632;2024-03-22T07:58:53;99621.19;;;10.97;70.88
23417;BME280;11881;42.432;25.632;2024-03-22T08:01:18;99620.91;;;11.40;69.19
23417;BME280;11881;42.432;25.632;2024-03-22T08:03:44;99619.94;;;11.41;68.68
23417;BME280;11881;42.432;25.632;2024-03-22T08:06:09;99629.88;;;10.99;69.12
23417;BME280;11881;42.432;25.632;2024-03-22T08:08:35;99623.84;;;10.97;70.74
23417;BME280;11881;42.432;25.632;2024-03-22T08:11:01;99622.88;;;10.77;71.91
23417;BME280;11881;42.432;25.632;2024-03-22T08:13:26;99630.34;;;10.83;72.07
23417;BME280;11881;42.432;25.632;2024-03-22T08:15:52;99628.19;;;10.98;70.42
23417;BME280;11881;42.432;25.632;2024-03-22T08:18:17;99630.19;;;11.06;68.71
23417;BME280;11881;42.432;25.632;2024-03-22T08:20:43;99631.31;;;11.03;69.51
23417;BME280;11881;42.432;25.632;2024-03-22T08:23:08;99623.78;;;11.18;66.80
23417;BME280;11881;42.432;25.632;2024-03-22T08:25:34;99622.59;;;11.32;67.16
23417;BME280;11881;42.432;25.632;2024-03-22T08:28:00;99629.00;;;11.60;68.68
23417;BME280;11881;42.432;25.632;2024-03-22T08:30:25;99628.78;;;11.02;69.83
23417;BME280;11881;42.432;25.632;2024-03-22T08:32:52;99629.94;;;11.09;69.86
23417;BME280;11881;42.432;25.632;2024-03-22T08:35:17;99622.50;;;11.53;71.62
23417;BME280;11881;42.432;25.632;2024-03-22T08:37:43;99623.97;;;11.26;71.88
23417;BME280;11881;42.432;25.632;2024-03-22T08:40:09;99630.69;;;11.21;68.73
23417;BME280;11881;42.432;25.632;2024-03-22T08:42:36;99625.16;;;11.43;67.83
23417;BME280;11881;42.432;25.632;2024-03-22T08:45:01;99623.03;;;11.37;68.62
23417;BME280;11881;42.432;25.632;2024-03-22T08:47:29;99620.09;;;11.50;67.44
23417;BME280;11881;42.432;25.632;2024-03-22T08:49:55;99618.28;;;11.50;66.63
23417;BME280;11881;42.432;25.632;2024-03-22T08:52:23;99622.22;;;11.56;64.90
23417;BME280;11881;42.432;25.632;2024-03-22T08:54:50;99609.69;;;12.35;63.47
23417;BME280;11881;42.432;25.632;2024-03-22T08:57:15;99626.69;;;11.95;63.46
23417;BME280;11881;42.432;25.632;2024-03-22T08:59:41;99617.22;;;11.72;65.11
23417;BME280;11881;42.432;25.632;2024-03-22T09:02:06;99623.31;;;12.13;65.02
23417;BME280;11881;42.432;25.632;2024-03-22T09:04:32;99620.91;;;12.10;64.56
23417;BME280;11881;42.432;25.632;2024-03-22T09:06:57;99603.78;;;11.83;65.83
23417;BME280;11881;42.432;25.632;2024-03-22T09:09:23;99608.41;;;12.10;65.75
23417;BME280;11881;42.432;25.632;2024-03-22T09:11:49;99602.50;;;12.16;64.96
23417;BME280;11881;42.432;25.632;2024-03-22T09:14:14;99600.47;;;12.67;64.80
23417;BME280;11881;42.432;25.632;2024-03-22T09:16:40;99608.38;;;12.59;61.24
23417;BME280;11881;42.432;25.632;2024-03-22T09:19:06;99609.13;;;12.41;62.25
23417;BME280;11881;42.432;25.632;2024-03-22T09:21:31;99603.75;;;12.22;60.61
23417;BME280;11881;42.432;25.632;2024-03-22T09:23:57;99608.41;;;12.30;59.73
23417;BME280;11881;42.432;25.632;2024-03-22T09:26:22;99607.41;;;12.50;58.33
23417;BME280;11881;42.432;25.632;2024-03-22T09:28:48;99589.25;;;13.00;58.89
23417;BME280;11881;42.432;25.632;2024-03-22T09:31:15;99588.34;;;12.82;58.95
23417;BME280;11881;42.432;25.632;2024-03-22T09:33:42;99592.69;;;13.20;58.75
23417;BME280;11881;42.432;25.632;2024-03-22T09:36:08;99588.06;;;13.22;58.28
23417;BME280;11881;42.432;25.632;2024-03-22T09:38:34;99590.44;;;12.78;59.50
23417;BME280;11881;42.432;25.632;2024-03-22T09:40:59;99584.50;;;12.94;59.28
23417;BME280;11881;42.432;25.632;2024-03-22T09:43:27;99586.16;;;13.32;58.71
23417;BME280;11881;42.432;25.632;2024-03-22T09:45:55;99583.44;;;12.68;57.68
23417;BME280;11881;42.432;25.632;2024-03-22T09:48:20;99582.50;;;12.59;57.68
23417;BME280;11881;42.432;25.632;2024-03-22T09:50:46;99582.78;;;12.46;57.97
23417;BME280;11881;42.432;25.632;2024-03-22T09:53:19;99578.16;;;12.48;58.57
23417;BME280;11881;42.432;25.632;2024-03-22T09:55:47;99584.59;;;12.56;58.38
23417;BME280;11881;42.432;25.632;2024-03-22T09:58:12;99581.94;;;12.56;57.84
23417;BME280;11881;42.432;25.632;2024-03-22T10:00:38;99565.78;;;13.49;59.36
23417;BME280;11881;42.432;25.632;2024-03-22T10:03:04;99568.69;;;13.38;56.85
23417;BME280;11881;42.432;25.632;2024-03-22T10:05:32;99570.94;;;13.33;57.20
23417;BME280;11881;42.432;25.632;2024-03-22T10:07:58;99564.31;;;14.00;56.07
23417;BME280;11881;42.432;25.632;2024-03-22T10:10:24;99572.50;;;13.81;54.58
23417;BME280;11881;42.432;25.632;2024-03-22T10:12:49;99562.13;;;13.50;55.70
23417;BME280;11881;42.432;25.632;2024-03-22T10:15:17;99562.47;;;13.83;56.29
23417;BME280;11881;42.432;25.632;2024-03-22T10:17:43;99551.69;;;13.75;54.98
23417;BME280;11881;42.432;25.632;2024-03-22T10:20:12;99548.47;;;13.89;54.42
23417;BME280;11881;42.432;25.632;2024-03-22T10:22:43;99543.94;;;14.07;54.54
23417;BME280;11881;42.432;25.632;2024-03-22T10:25:10;99546.69;;;14.16;54.64
23417;BME280;11881;42.432;25.632;2024-03-22T10:27:38;99536.94;;;14.15;53.54
23417;BME280;11881;42.432;25.632;2024-03-22T10:30:08;99544.97;;;14.32;51.14
23417;BME280;11881;42.432;25.632;2024-03-22T10:32:34;99528.53;;;14.27;51.18
23417;BME280;11881;42.432;25.632;2024-03-22T10:35:02;99525.88;;;14.53;50.47
23417;BME280;11881;42.432;25.632;2024-03-22T10:37:34;99519.97;;;14.06;50.42
23417;BME280;11881;42.432;25.632;2024-03-22T10:40:02;99515.16;;;13.74;49.97
23417;BME280;11881;42.432;25.632;2024-03-22T10:42:35;99511.84;;;14.16;52.42
23417;BME280;11881;42.432;25.632;2024-03-22T10:45:05;99505.34;;;14.44;51.74
23417;BME280;11881;42.432;25.632;2024-03-22T10:47:32;99498.06;;;14.54;49.18
23417;BME280;11881;42.432;25.632;2024-03-22T10:50:07;99497.47;;;15.03;50.22
23417;BME280;11881;42.432;25.632;2024-03-22T10:53:01;99496.56;;;14.86;48.57
23417;BME280;11881;42.432;25.632;2024-03-22T10:55:33;99490.47;;;14.76;49.07
23417;BME280;11881;42.432;25.632;2024-03-22T10:58:00;99487.53;;;14.95;48.42
23417;BME280;11881;42.432;25.632;2024-03-22T11:00:29;99496.94;;;14.65;47.26
23417;BME280;11881;42.432;25.632;2024-03-22T11:02:55;99487.38;;;14.97;48.31
23417;BME280;11881;42.432;25.632;2024-03-22T11:05:21;99482.41;;;14.68;47.09
23417;BME280;11881;42.432;25.632;2024-03-22T11:07:46;99476.69;;;14.71;48.25
23417;BME280;11881;42.432;25.632;2024-03-22T11:10:12;99473.19;;;14.70;46.58
23417;BME280;11881;42.432;25.632;2024-03-22T11:12:39;99476.41;;;14.82;45.77
23417;BME280;11881;42.432;25.632;2024-03-22T11:15:05;99468.44;;;14.64;47.61
23417;BME280;11881;42.432;25.632;2024-03-22T11:17:31;99453.25;;;14.73;46.25
23417;BME280;11881;42.432;25.632;2024-03-22T11:19:56;99470.94;;;14.92;43.38
23417;BME280;11881;42.432;25.632;2024-03-22T11:22:22;99467.41;;;14.91;41.50
23417;BME280;11881;42.432;25.632;2024-03-22T11:24:47;99463.44;;;15.11;41.26
23417;BME280;11881;42.432;25.632;2024-03-22T11:27:13;99449.66;;;14.98;41.55
23417;BME280;11881;42.432;25.632;2024-03-22T11:29:39;99452.44;;;15.39;40.33
23417;BME280;11881;42.432;25.632;2024-03-22T11:32:07;99446.28;;;15.63;39.52
23417;BME280;11881;42.432;25.632;2024-03-22T11:34:36;99445.91;;;15.58;39.69
23417;BME280;11881;42.432;25.632;2024-03-22T11:37:02;99431.97;;;15.46;40.67
23417;BME280;11881;42.432;25.632;2024-03-22T11:39:28;99436.50;;;15.54;39.67
23417;BME280;11881;42.432;25.632;2024-03-22T11:41:54;99429.44;;;15.53;37.96
23417;BME280;11881;42.432;25.632;2024-03-22T11:44:21;99429.13;;;15.56;38.55
23417;BME280;11881;42.432;25.632;2024-03-22T11:46:47;99422.78;;;15.89;39.71
23417;BME280;11881;42.432;25.632;2024-03-22T11:49:13;99427.97;;;15.75;38.35
23417;BME280;11881;42.432;25.632;2024-03-22T11:51:38;99425.25;;;15.58;39.15
23417;BME280;11881;42.432;25.632;2024-03-22T11:54:06;99423.94;;;15.79;40.35
23417;BME280;11881;42.432;25.632;2024-03-22T11:56:34;99424.13;;;15.85;39.30
23417;BME280;11881;42.432;25.632;2024-03-22T11:59:00;99419.41;;;15.63;40.96
23417;BME280;11881;42.432;25.632;2024-03-22T12:01:28;99427.28;;;15.56;39.04
23417;BME280;11881;42.432;25.632;2024-03-22T12:03:53;99422.69;;;15.08;37.12
23417;BME280;11881;42.432;25.632;2024-03-22T12:06:20;99420.31;;;15.13;37.68
23417;BME280;11881;42.432;25.632;2024-03-22T12:08:46;99414.53;;;15.50;39.20
23417;BME280;11881;42.432;25.632;2024-03-22T12:11:11;99418.88;;;15.51;38.47
23417;BME280;11881;42.432;25.632;2024-03-22T12:13:40;99422.47;;;15.01;37.92
23417;BME280;11881;42.432;25.632;2024-03-22T12:16:05;99408.28;;;14.67;40.51
23417;BME280;11881;42.432;25.632;2024-03-22T12:18:32;99411.69;;;14.77;41.16
23417;BME280;11881;42.432;25.632;2024-03-22T12:20:58;99415.00;;;14.71;38.78
23417;BME280;11881;42.432;25.632;2024-03-22T12:23:24;99406.41;;;14.59;39.84
23417;BME280;11881;42.432;25.632;2024-03-22T12:25:50;99398.44;;;14.41;40.56
23417;BME280;11881;42.432;25.632;2024-03-22T12:28:17;99396.72;;;14.66;40.98
23417;BME280;11881;42.432;25.632;2024-03-22T12:30:43;99399.56;;;14.64;45.56
23417;BME280;11881;42.432;25.632;2024-03-22T12:33:09;99396.22;;;14.62;46.23
23417;BME280;11881;42.432;25.632;2024-03-22T12:35:40;99391.69;;;14.63;46.37
23417;BME280;11881;42.432;25.632;2024-03-22T12:38:06;99389.13;;;14.53;47.34
23417;BME280;11881;42.432;25.632;2024-03-22T12:40:32;99389.88;;;14.72;46.57
23417;BME280;11881;42.432;25.632;2024-03-22T12:42:59;99383.19;;;14.84;46.51
23417;BME280;11881;42.432;25.632;2024-03-22T12:45:24;99385.75;;;14.85;46.00
23417;BME280;11881;42.432;25.632;2024-03-22T12:47:50;99387.78;;;14.49;46.12
23417;BME280;11881;42.432;25.632;2024-03-22T12:50:16;99367.75;;;14.61;46.73
23417;BME280;11881;42.432;25.632;2024-03-22T12:52:41;99376.69;;;14.44;47.05
23417;BME280;11881;42.432;25.632;2024-03-22T12:55:09;99376.91;;;14.51;46.43
23417;BME280;11881;42.432;25.632;2024-03-22T12:57:35;99369.72;;;14.51;47.70
23417;BME280;11881;42.432;25.632;2024-03-22T13:00:00;99364.00;;;14.54;46.78
23417;BME280;11881;42.432;25.632;2024-03-22T13:02:26;99374.84;;;14.45;45.43
23417;BME280;11881;42.432;25.632;2024-03-22T13:04:52;99376.41;;;14.21;47.19
23417;BME280;11881;42.432;25.632;2024-03-22T13:07:19;99368.84;;;14.17;46.31
23417;BME280;11881;42.432;25.632;2024-03-22T13:09:45;99369.03;;;14.23;46.63
23417;BME280;11881;42.432;25.632;2024-03-22T13:12:10;99375.84;;;14.09;45.88
23417;BME280;11881;42.432;25.632;2024-03-22T13:14:36;99369.69;;;14.17;46.22
23417;BME280;11881;42.432;25.632;2024-03-22T13:17:03;99362.38;;;14.27;45.77
23417;BME280;11881;42.432;25.632;2024-03-22T13:19:28;99360.63;;;14.18;46.37
23417;BME280;11881;42.432;25.632;2024-03-22T13:21:54;99358.69;;;14.28;46.61
23417;BME280;11881;42.432;25.632;2024-03-22T13:24:20;99364.44;;;14.07;45.72
23417;BME280;11881;42.432;25.632;2024-03-22T13:26:46;99360.69;;;13.92;44.89
23417;BME280;11881;42.432;25.632;2024-03-22T13:29:12;99347.53;;;14.07;45.56
23417;BME280;11881;42.432;25.632;2024-03-22T13:31:39;99358.34;;;13.97;45.13
23417;BME280;11881;42.432;25.632;2024-03-22T13:34:04;99338.00;;;14.13;45.05
23417;BME280;11881;42.432;25.632;2024-03-22T13:36:29;99352.84;;;13.99;46.16
23417;BME280;11881;42.432;25.632;2024-03-22T13:38:58;99338.63;;;13.98;44.06
23417;BME280;11881;42.432;25.632;2024-03-22T13:41:23;99342.59;;;13.94;44.48
23417;BME280;11881;42.432;25.632;2024-03-22T13:43:49;99333.94;;;14.00;45.68
23417;BME280;11881;42.432;25.632;2024-03-22T13:46:14;99329.47;;;13.83;44.94
23417;BME280;11881;42.432;25.632;2024-03-22T13:48:42;99336.72;;;13.91;45.48
23417;BME280;11881;42.432;25.632;2024-03-22T13:51:08;99337.91;;;13.96;44.77
23417;BME280;11881;42.432;25.632;2024-03-22T13:53:33;99326.94;;;14.07;44.42
23417;BME280;11881;42.432;25.632;2024-03-22T13:55:59;99325.25;;;14.06;44.71
23417;BME280;11881;42.432;25.632;2024-03-22T13:58:26;99319.53;;;14.01;44.23
23417;BME280;11881;42.432;25.632;2024-03-22T14:00:52;99329.22;;;13.94;44.56
23417;BME280;11881;42.432;25.632;2024-03-22T14:03:18;99316.66;;;13.95;45.45
23417;BME280;11881;42.432;25.632;2024-03-22T14:05:43;99316.84;;;14.01;45.05
23417;BME280;11881;42.432;25.632;2024-03-22T14:08:09;99319.09;;;14.14;45.39
23417;BME280;11881;42.432;25.632;2024-03-22T14:10:34;99318.88;;;13.99;46.83
23417;BME280;11881;42.432;25.632;2024-03-22T14:13:01;99311.00;;;13.98;46.56
23417;BME280;11881;42.432;25.632;2024-03-22T14:15:27;99315.84;;;14.02;44.63
23417;BME280;11881;42.432;25.632;2024-03-22T14:17:56;99311.50;;;14.01;44.49
23417;BME280;11881;42.432;25.632;2024-03-22T14:20:22;99307.75;;;13.86;44.42
23417;BME280;11881;42.432;25.632;2024-03-22T14:22:48;99302.72;;;13.91;47.08
23417;BME280;11881;42.432;25.632;2024-03-22T14:25:14;99312.13;;;13.95;46.26
23417;BME280;11881;42.432;25.632;2024-03-22T14:27:39;99297.81;;;14.13;46.56
23417;BME280;11881;42.432;25.632;2024-03-22T14:30:10;99311.69;;;14.08;45.84
23417;BME280;11881;42.432;25.632;2024-03-22T14:32:38;99307.63;;;13.96;46.46
23417;BME280;11881;42.432;25.632;2024-03-22T14:35:04;99303.72;;;13.90;46.10
23417;BME280;11881;42.432;25.632;2024-03-22T14:37:30;99310.44;;;13.86;47.43
23417;BME280;11881;42.432;25.632;2024-03-22T14:39:56;99306.69;;;13.79;45.66
23417;BME280;11881;42.432;25.632;2024-03-22T14:42:22;99315.09;;;13.84;47.18
23417;BME280;11881;42.432;25.632;2024-03-22T14:44:47;99312.22;;;13.77;46.11
23417;BME280;11881;42.432;25.632;2024-03-22T14:47:13;99311.19;;;13.78;47.83
23417;BME280;11881;42.432;25.632;2024-03-22T14:49:38;99317.03;;;13.74;48.41
23417;BME280;11881;42.432;25.632;2024-03-22T14:52:06;99314.25;;;13.83;46.57
23417;BME280;11881;42.432;25.632;2024-03-22T14:54:31;99311.75;;;13.82;46.09
23417;BME280;11881;42.432;25.632;2024-03-22T14:56:57;99311.47;;;13.93;46.62
23417;BME280;11881;42.432;25.632;2024-03-22T14:59:22;99317.72;;;13.76;46.16
23417;BME280;11881;42.432;25.632;2024-03-22T15:01:48;99313.03;;;13.78;45.84
23417;BME280;11881;42.432;25.632;2024-03-22T15:04:13;99308.03;;;13.75;46.84
23417;BME280;11881;42.432;25.632;2024-03-22T15:06:39;99312.47;;;13.66;48.89
23417;BME280;11881;42.432;25.632;2024-03-22T15:09:04;99310.69;;;13.75;46.14
23417;BME280;11881;42.432;25.632;2024-03-22T15:11:36;99318.16;;;13.63;46.75
23417;BME280;11881;42.432;25.632;2024-03-22T15:14:02;99309.75;;;13.58;47.16
23417;BME280;11881;42.432;25.632;2024-03-22T15:16:28;99305.91;;;13.61;46.20
23417;BME280;11881;42.432;25.632;2024-03-22T15:18:54;99304.03;;;13.53;48.14
23417;BME280;11881;42.432;25.632;2024-03-22T15:21:19;99307.53;;;13.53;48.15
23417;BME280;11881;42.432;25.632;2024-03-22T15:23:46;99294.41;;;13.42;50.49
23417;BME280;11881;42.432;25.632;2024-03-22T15:26:11;99300.31;;;13.46;49.42
23417;BME280;11881;42.432;25.632;2024-03-22T15:28:37;99309.19;;;13.46;48.87
23417;BME280;11881;42.432;25.632;2024-03-22T15:31:03;99309.75;;;13.58;48.68
23417;BME280;11881;42.432;25.632;2024-03-22T15:33:28;99304.66;;;13.47;48.81
23417;BME280;11881;42.432;25.632;2024-03-22T15:35:54;99307.72;;;13.52;47.64
23417;BME280;11881;42.432;25.632;2024-03-22T15:38:19;99309.19;;;13.46;47.37
23417;BME280;11881;42.432;25.632;2024-03-22T15:40:46;99304.97;;;13.44;48.69
23417;BME280;11881;42.432;25.632;2024-03-22T15:43:12;99307.53;;;13.53;48.61
23417;BME280;11881;42.432;25.632;2024-03-22T15:45:38;99304.75;;;13.37;49.09
23417;BME280;11881;42.432;25.632;2024-03-22T15:48:04;99311.78;;;13.38;49.01
23417;BME280;11881;42.432;25.632;2024-03-22T15:50:33;99314.16;;;13.41;49.14
23417;BME280;11881;42.432;25.632;2024-03-22T15:52:59;99308.72;;;13.33;49.80
23417;BME280;11881;42.432;25.632;2024-03-22T15:55:24;99313.19;;;13.24;51.02
23417;BME280;11881;42.432;25.632;2024-03-22T15:57:50;99309.25;;;13.19;49.89
23417;BME280;11881;42.432;25.632;2024-03-22T16:00:20;99310.66;;;13.23;49.98
23417;BME280;11881;42.432;25.632;2024-03-22T16:02:46;99312.78;;;13.19;50.75
23417;BME280;11881;42.432;25.632;2024-03-22T16:05:15;99316.34;;;13.10;50.90
23417;BME280;11881;42.432;25.632;2024-03-22T16:07:41;99310.88;;;13.12;50.60
23417;BME280;11881;42.432;25.632;2024-03-22T16:10:07;99318.75;;;13.13;50.43
23417;BME280;11881;42.432;25.632;2024-03-22T16:12:32;99321.66;;;13.02;51.82
23417;BME280;11881;42.432;25.632;2024-03-22T16:14:58;99326.84;;;13.03;50.82
23417;BME280;11881;42.432;25.632;2024-03-22T16:17:23;99319.53;;;12.88;52.48
23417;BME280;11881;42.432;25.632;2024-03-22T16:19:49;99322.66;;;12.83;53.29
23417;BME280;11881;42.432;25.632;2024-03-22T16:22:15;99333.13;;;12.76;53.40
23417;BME280;11881;42.432;25.632;2024-03-22T16:24:40;99325.38;;;12.73;52.82
23417;BME280;11881;42.432;25.632;2024-03-22T16:27:05;99335.84;;;12.67;52.56
23417;BME280;11881;42.432;25.632;2024-03-22T16:29:31;99331.38;;;12.58;53.28
23417;BME280;11881;42.432;25.632;2024-03-22T16:31:57;99328.59;;;12.59;52.75
23417;BME280;11881;42.432;25.632;2024-03-22T16:34:22;99337.53;;;12.68;52.71
23417;BME280;11881;42.432;25.632;2024-03-22T16:36:48;99340.50;;;12.65;51.90
23417;BME280;11881;42.432;25.632;2024-03-22T16:39:13;99337.53;;;12.68;52.78
23417;BME280;11881;42.432;25.632;2024-03-22T16:41:39;99348.56;;;12.55;52.75
23417;BME280;11881;42.432;25.632;2024-03-22T16:44:18;99348.31;;;12.76;52.42
23417;BME280;11881;42.432;25.632;2024-03-22T16:46:58;99351.66;;;12.60;52.74
23417;BME280;11881;42.432;25.632;2024-03-22T16:49:49;99350.84;;;12.50;53.12
23417;BME280;11881;42.432;25.632;2024-03-22T16:52:37;99361.97;;;12.45;53.43
23417;BME280;11881;42.432;25.632;2024-03-22T16:55:49;99352.88;;;12.38;54.04
23417;BME280;11881;42.432;25.632;2024-03-22T16:58:37;99363.31;;;12.32;54.13
23417;BME280;11881;42.432;25.632;2024-03-22T17:01:04;99367.44;;;12.26;55.32
23417;BME280;11881;42.432;25.632;2024-03-22T17:03:30;99377.47;;;12.14;56.53
23417;BME280;11881;42.432;25.632;2024-03-22T17:05:57;99368.94;;;12.01;59.83
23417;BME280;11881;42.432;25.632;2024-03-22T17:08:31;99372.31;;;11.93;59.67
23417;BME280;11881;42.432;25.632;2024-03-22T17:10:57;99379.66;;;11.82;61.76
23417;BME280;11881;42.432;25.632;2024-03-22T17:13:23;99375.34;;;11.61;63.32
23417;BME280;11881;42.432;25.632;2024-03-22T17:15:49;99381.19;;;11.65;61.90
23417;BME280;11881;42.432;25.632;2024-03-22T17:18:18;99385.31;;;11.40;63.40
23417;BME280;11881;42.432;25.632;2024-03-22T17:20:44;99388.84;;;11.21;65.34
23417;BME280;11881;42.432;25.632;2024-03-22T17:23:10;99392.06;;;11.15;67.98
23417;BME280;11881;42.432;25.632;2024-03-22T17:25:36;99395.44;;;11.17;67.18
23417;BME280;11881;42.432;25.632;2024-03-22T17:28:02;99395.44;;;11.17;68.25
23417;BME280;11881;42.432;25.632;2024-03-22T17:30:27;99398.78;;;11.00;67.83
23417;BME280;11881;42.432;25.632;2024-03-22T17:32:53;99403.28;;;10.99;69.27
23417;BME280;11881;42.432;25.632;2024-03-22T17:35:19;99399.75;;;10.99;69.30
23417;BME280;11881;42.432;25.632;2024-03-22T17:37:44;99409.84;;;10.85;69.93
23417;BME280;11881;42.432;25.632;2024-03-22T17:40:10;99408.47;;;10.91;70.72
23417;BME280;11881;42.432;25.632;2024-03-22T17:42:37;99416.56;;;10.89;71.80
23417;BME280;11881;42.432;25.632;2024-03-22T17:45:03;99418.53;;;10.87;70.54
23417;BME280;11881;42.432;25.632;2024-03-22T17:47:29;99422.03;;;10.78;71.12
23417;BME280;11881;42.432;25.632;2024-03-22T17:49:55;99419.06;;;10.62;70.84
23417;BME280;11881;42.432;25.632;2024-03-22T17:52:20;99429.22;;;10.47;71.82
23417;BME280;11881;42.432;25.632;2024-03-22T17:54:49;99434.56;;;10.47;73.79
23417;BME280;11881;42.432;25.632;2024-03-22T17:57:15;99425.13;;;10.43;72.89
23417;BME280;11881;42.432;25.632;2024-03-22T17:59:41;99432.28;;;10.43;72.93
23417;BME280;11881;42.432;25.632;2024-03-22T18:02:06;99436.16;;;10.08;73.89
23417;BME280;11881;42.432;25.632;2024-03-22T18:04:32;99434.63;;;10.05;73.48
23417;BME280;11881;42.432;25.632;2024-03-22T18:06:58;99431.94;;;10.05;74.53
23417;BME280;11881;42.432;25.632;2024-03-22T18:09:23;99432.19;;;10.02;76.06
23417;BME280;11881;42.432;25.632;2024-03-22T18:11:49;99429.53;;;10.02;76.85
23417;BME280;11881;42.432;25.632;2024-03-22T18:14:15;99434.00;;;9.92;77.04
23417;BME280;11881;42.432;25.632;2024-03-22T18:16:44;99435.66;;;9.72;78.20
23417;BME280;11881;42.432;25.632;2024-03-22T18:19:09;99440.91;;;9.83;79.12
23417;BME280;11881;42.432;25.632;2024-03-22T18:21:35;99438.13;;;9.64;78.52
23417;BME280;11881;42.432;25.632;2024-03-22T18:24:06;99438.78;;;9.77;78.48
23417;BME280;11881;42.432;25.632;2024-03-22T18:26:31;99441.50;;;9.87;77.54
23417;BME280;11881;42.432;25.632;2024-03-22T18:28:57;99440.75;;;9.75;78.96
23417;BME280;11881;42.432;25.632;2024-03-22T18:31:22;99442.28;;;9.78;79.05
23417;BME280;11881;42.432;25.632;2024-03-22T18:33:48;99442.41;;;9.76;79.37
23417;BME280;11881;42.432;25.632;2024-03-22T18:36:14;99445.91;;;9.77;77.84
23417;BME280;11881;42.432;25.632;2024-03-22T18:38:39;99443.47;;;9.64;79.84
23417;BME280;11881;42.432;25.632;2024-03-22T18:41:05;99448.91;;;9.63;79.82
23417;BME280;11881;42.432;25.632;2024-03-22T18:43:32;99438.88;;;9.34;81.90
23417;BME280;11881;42.432;25.632;2024-03-22T18:46:00;99443.94;;;9.37;82.07
23417;BME280;11881;42.432;25.632;2024-03-22T18:48:25;99448.03;;;9.41;82.38
23417;BME280;11881;42.432;25.632;2024-03-22T18:50:52;99444.78;;;9.38;82.94
23417;BME280;11881;42.432;25.632;2024-03-22T18:53:20;99446.03;;;9.33;84.19
23417;BME280;11881;42.432;25.632;2024-03-22T18:55:45;99441.13;;;9.18;84.65
23417;BME280;11881;42.432;25.632;2024-03-22T18:58:11;99447.59;;;9.25;85.00
23417;BME280;11881;42.432;25.632;2024-03-22T19:00:37;99445.28;;;9.31;86.43
23417;BME280;11881;42.432;25.632;2024-03-22T19:03:03;99448.91;;;9.30;83.25
23417;BME280;11881;42.432;25.632;2024-03-22T19:05:29;99444.56;;;9.29;81.86
23417;BME280;11881;42.432;25.632;2024-03-22T19:07:55;99452.31;;;9.21;81.84
23417;BME280;11881;42.432;25.632;2024-03-22T19:10:21;99458.66;;;8.98;82.17
23417;BME280;11881;42.432;25.632;2024-03-22T19:12:46;99458.91;;;9.06;85.05
23417;BME280;11881;42.432;25.632;2024-03-22T19:15:12;99483.31;;;9.00;81.88
23417;BME280;11881;42.432;25.632;2024-03-22T19:17:37;99486.63;;;8.70;80.61
23417;BME280;11881;42.432;25.632;2024-03-22T19:20:03;99483.59;;;8.52;81.43
23417;BME280;11881;42.432;25.632;2024-03-22T19:22:30;99470.56;;;8.71;83.71
23417;BME280;11881;42.432;25.632;2024-03-22T19:24:56;99477.28;;;8.87;82.82
23417;BME280;11881;42.432;25.632;2024-03-22T19:27:21;99477.28;;;8.87;82.59
23417;BME280;11881;42.432;25.632;2024-03-22T19:29:47;99472.94;;;8.86;81.89
23417;BME280;11881;42.432;25.632;2024-03-22T19:32:12;99477.91;;;8.90;81.75
23417;BME280;11881;42.432;25.632;2024-03-22T19:34:38;99484.53;;;8.85;82.06
23417;BME280;11881;42.432;25.632;2024-03-22T19:37:04;99486.16;;;8.65;82.83
23417;BME280;11881;42.432;25.632;2024-03-22T19:39:34;99485.53;;;8.84;81.71
23417;BME280;11881;42.432;25.632;2024-03-22T19:42:01;99486.84;;;8.78;82.76
23417;BME280;11881;42.432;25.632;2024-03-22T19:44:26;99483.84;;;8.83;82.89
23417;BME280;11881;42.432;25.632;2024-03-22T19:46:52;99482.88;;;8.72;84.24
23417;BME280;11881;42.432;25.632;2024-03-22T19:49:18;99485.75;;;8.69;82.81
23417;BME280;11881;42.432;25.632;2024-03-22T19:51:43;99487.22;;;8.73;83.71
23417;BME280;11881;42.432;25.632;2024-03-22T19:54:09;99489.75;;;8.64;86.10
23417;BME280;11881;42.432;25.632;2024-03-22T19:56:34;99485.91;;;8.57;85.13
23417;BME280;11881;42.432;25.632;2024-03-22T19:59:02;99491.81;;;8.49;86.30
23417;BME280;11881;42.432;25.632;2024-03-22T20:01:28;99487.69;;;8.56;85.86
23417;BME280;11881;42.432;25.632;2024-03-22T20:03:54;99477.88;;;8.34;88.29